Forside
METAR-TAF:

METAR-TAF

Lufthavne :

Tanabe, Japan

Breddekreds: 33-44N, længdekreds: 135-23E, højde: 105 m

Aktuelle vejr

Denne rapport blev lavet for 8 timer og 22 minutter siden, kl. 23:00 UTC
Vind 5 kt fra østnordøst
Temperatur 8°C
Fugtighed 81%
Tryk 1019 hPa
Sigt 10 km eller mere
Nogle få skyer i en højde af 2500 ft
Spredte skyer i en højde af 6000 ft
Brudte skyer i en højde af 7000 ft
byger i nærheden

METAR: RJBD 282300Z 07005KT 9999 VCSH FEW025 SCT060 BKN070 08/05 Q1019

Tid: 16:22 (07:22 UTC)


TAF: fraværende

Vejrobservationer og prognoser fra mere end 4000 lufthavne (METAR og TAF).

De gule og røde prikker repræsenterer de meteorologiske stationer.

Flyt musen over at se navnet på stationen.

Så klik over at se vejr observationer og prognoser.

At skifte det kort: Klik på de grønne knapper med et sort kors for at zoome ind; på den grønne knap med en bindestreg for at zoome ud; eller på de grønne pile for tilstødende kort.


METAR-TAF: